sensor_id;sensor_type;location;lat;lon;timestamp;P1;durP1;ratioP1;P2;durP2;ratioP2
48925;SDS011;39838;59.938;30.642;2023-04-06T00:01:07;5.47;;;4.00;;
48925;SDS011;39838;59.938;30.642;2023-04-06T00:03:34;6.90;;;4.18;;
48925;SDS011;39838;59.938;30.642;2023-04-06T00:06:01;6.88;;;4.53;;
48925;SDS011;39838;59.938;30.642;2023-04-06T00:08:30;6.60;;;4.38;;
48925;SDS011;39838;59.938;30.642;2023-04-06T00:10:57;7.18;;;4.38;;
48925;SDS011;39838;59.938;30.642;2023-04-06T00:13:24;7.93;;;4.40;;
48925;SDS011;39838;59.938;30.642;2023-04-06T00:15:51;7.95;;;4.82;;
48925;SDS011;39838;59.938;30.642;2023-04-06T00:18:19;7.43;;;4.20;;
48925;SDS011;39838;59.938;30.642;2023-04-06T00:20:46;6.68;;;4.65;;
48925;SDS011;39838;59.938;30.642;2023-04-06T00:23:13;6.05;;;4.13;;
48925;SDS011;39838;59.938;30.642;2023-04-06T00:25:42;6.80;;;4.70;;
48925;SDS011;39838;59.938;30.642;2023-04-06T00:28:09;5.80;;;4.10;;
48925;SDS011;39838;59.938;30.642;2023-04-06T00:30:36;6.22;;;4.28;;
48925;SDS011;39838;59.938;30.642;2023-04-06T00:33:04;6.45;;;4.25;;
48925;SDS011;39838;59.938;30.642;2023-04-06T00:35:31;7.25;;;4.40;;
48925;SDS011;39838;59.938;30.642;2023-04-06T00:37:58;6.53;;;4.32;;
48925;SDS011;39838;59.938;30.642;2023-04-06T00:40:25;7.18;;;4.40;;
48925;SDS011;39838;59.938;30.642;2023-04-06T00:42:55;7.90;;;4.72;;
48925;SDS011;39838;59.938;30.642;2023-04-06T00:45:22;7.85;;;5.18;;
48925;SDS011;39838;59.938;30.642;2023-04-06T00:47:49;7.90;;;4.78;;
48925;SDS011;39838;59.938;30.642;2023-04-06T00:50:16;7.82;;;5.05;;
48925;SDS011;39838;59.938;30.642;2023-04-06T00:52:43;7.03;;;4.82;;
48925;SDS011;39838;59.938;30.642;2023-04-06T00:55:11;8.25;;;4.97;;
48925;SDS011;39838;59.938;30.642;2023-04-06T00:57:38;7.63;;;4.75;;
48925;SDS011;39838;59.938;30.642;2023-04-06T01:00:07;7.00;;;4.72;;
48925;SDS011;39838;59.938;30.642;2023-04-06T01:02:35;8.13;;;5.20;;
48925;SDS011;39838;59.938;30.642;2023-04-06T01:05:02;7.68;;;5.10;;
48925;SDS011;39838;59.938;30.642;2023-04-06T01:07:30;10.35;;;5.25;;
48925;SDS011;39838;59.938;30.642;2023-04-06T01:09:57;8.65;;;5.43;;
48925;SDS011;39838;59.938;30.642;2023-04-06T01:12:24;7.53;;;4.97;;
48925;SDS011;39838;59.938;30.642;2023-04-06T01:14:51;8.15;;;5.00;;
48925;SDS011;39838;59.938;30.642;2023-04-06T01:17:20;7.43;;;5.10;;
48925;SDS011;39838;59.938;30.642;2023-04-06T01:19:47;8.85;;;5.22;;
48925;SDS011;39838;59.938;30.642;2023-04-06T01:22:18;7.88;;;4.53;;
48925;SDS011;39838;59.938;30.642;2023-04-06T01:24:45;8.13;;;4.80;;
48925;SDS011;39838;59.938;30.642;2023-04-06T01:27:13;7.53;;;5.03;;
48925;SDS011;39838;59.938;30.642;2023-04-06T01:29:40;9.25;;;5.18;;
48925;SDS011;39838;59.938;30.642;2023-04-06T01:32:08;7.95;;;5.10;;
48925;SDS011;39838;59.938;30.642;2023-04-06T01:34:35;8.07;;;5.55;;
48925;SDS011;39838;59.938;30.642;2023-04-06T01:37:02;9.23;;;5.60;;
48925;SDS011;39838;59.938;30.642;2023-04-06T01:39:31;7.82;;;5.18;;
48925;SDS011;39838;59.938;30.642;2023-04-06T01:41:58;8.40;;;5.10;;
48925;SDS011;39838;59.938;30.642;2023-04-06T01:44:25;7.63;;;4.60;;
48925;SDS011;39838;59.938;30.642;2023-04-06T01:46:52;9.93;;;5.20;;
48925;SDS011;39838;59.938;30.642;2023-04-06T01:49:19;6.85;;;4.95;;
48925;SDS011;39838;59.938;30.642;2023-04-06T01:51:46;8.00;;;5.22;;
48925;SDS011;39838;59.938;30.642;2023-04-06T01:54:14;9.38;;;4.93;;
48925;SDS011;39838;59.938;30.642;2023-04-06T01:56:42;7.45;;;5.10;;
48925;SDS011;39838;59.938;30.642;2023-04-06T01:59:09;10.15;;;5.03;;
48925;SDS011;39838;59.938;30.642;2023-04-06T02:01:36;8.60;;;4.90;;
48925;SDS011;39838;59.938;30.642;2023-04-06T02:04:04;9.95;;;5.63;;
48925;SDS011;39838;59.938;30.642;2023-04-06T02:06:31;8.32;;;5.55;;
48925;SDS011;39838;59.938;30.642;2023-04-06T02:08:58;7.90;;;5.63;;
48925;SDS011;39838;59.938;30.642;2023-04-06T02:11:25;9.82;;;5.68;;
48925;SDS011;39838;59.938;30.642;2023-04-06T02:13:53;9.25;;;5.75;;
48925;SDS011;39838;59.938;30.642;2023-04-06T02:16:41;8.13;;;5.50;;
48925;SDS011;39838;59.938;30.642;2023-04-06T02:19:08;9.30;;;6.00;;
48925;SDS011;39838;59.938;30.642;2023-04-06T02:21:35;8.95;;;5.80;;
48925;SDS011;39838;59.938;30.642;2023-04-06T02:24:03;8.38;;;5.50;;
48925;SDS011;39838;59.938;30.642;2023-04-06T02:26:30;9.65;;;5.75;;
48925;SDS011;39838;59.938;30.642;2023-04-06T02:28:59;9.27;;;5.78;;
48925;SDS011;39838;59.938;30.642;2023-04-06T02:31:27;8.55;;;5.80;;
48925;SDS011;39838;59.938;30.642;2023-04-06T02:33:54;8.55;;;5.40;;
48925;SDS011;39838;59.938;30.642;2023-04-06T02:36:21;9.13;;;5.95;;
48925;SDS011;39838;59.938;30.642;2023-04-06T02:38:49;10.30;;;6.07;;
48925;SDS011;39838;59.938;30.642;2023-04-06T02:41:17;9.00;;;6.00;;
48925;SDS011;39838;59.938;30.642;2023-04-06T02:43:44;9.50;;;6.15;;
48925;SDS011;39838;59.938;30.642;2023-04-06T02:46:12;9.70;;;5.90;;
48925;SDS011;39838;59.938;30.642;2023-04-06T02:48:39;8.50;;;5.90;;
48925;SDS011;39838;59.938;30.642;2023-04-06T02:51:07;8.63;;;5.70;;
48925;SDS011;39838;59.938;30.642;2023-04-06T02:53:34;7.63;;;5.40;;
48925;SDS011;39838;59.938;30.642;2023-04-06T02:56:01;8.48;;;5.10;;
48925;SDS011;39838;59.938;30.642;2023-04-06T02:58:28;9.75;;;5.78;;
48925;SDS011;39838;59.938;30.642;2023-04-06T03:00:55;9.13;;;5.50;;
48925;SDS011;39838;59.938;30.642;2023-04-06T03:03:24;8.02;;;5.53;;
48925;SDS011;39838;59.938;30.642;2023-04-06T03:05:51;8.73;;;5.63;;
48925;SDS011;39838;59.938;30.642;2023-04-06T03:08:19;10.25;;;6.10;;
48925;SDS011;39838;59.938;30.642;2023-04-06T03:10:46;9.25;;;5.47;;
48925;SDS011;39838;59.938;30.642;2023-04-06T03:13:14;8.82;;;5.60;;
48925;SDS011;39838;59.938;30.642;2023-04-06T03:15:41;9.80;;;5.70;;
48925;SDS011;39838;59.938;30.642;2023-04-06T03:18:08;14.13;;;5.97;;
48925;SDS011;39838;59.938;30.642;2023-04-06T03:20:37;9.95;;;5.50;;
48925;SDS011;39838;59.938;30.642;2023-04-06T03:23:04;9.95;;;5.18;;
48925;SDS011;39838;59.938;30.642;2023-04-06T03:25:31;11.18;;;5.47;;
48925;SDS011;39838;59.938;30.642;2023-04-06T03:27:58;11.02;;;5.32;;
48925;SDS011;39838;59.938;30.642;2023-04-06T03:30:26;10.48;;;5.80;;
48925;SDS011;39838;59.938;30.642;2023-04-06T03:32:53;9.45;;;5.50;;
48925;SDS011;39838;59.938;30.642;2023-04-06T03:35:20;14.07;;;5.50;;
48925;SDS011;39838;59.938;30.642;2023-04-06T03:37:48;10.65;;;5.72;;
48925;SDS011;39838;59.938;30.642;2023-04-06T03:40:16;21.00;;;5.38;;
48925;SDS011;39838;59.938;30.642;2023-04-06T03:42:43;11.82;;;5.65;;
48925;SDS011;39838;59.938;30.642;2023-04-06T03:45:10;12.30;;;5.20;;
48925;SDS011;39838;59.938;30.642;2023-04-06T03:47:39;10.07;;;4.80;;
48925;SDS011;39838;59.938;30.642;2023-04-06T03:50:06;13.60;;;5.43;;
48925;SDS011;39838;59.938;30.642;2023-04-06T03:52:34;8.20;;;5.30;;
48925;SDS011;39838;59.938;30.642;2023-04-06T03:55:03;10.60;;;5.65;;
48925;SDS011;39838;59.938;30.642;2023-04-06T03:57:31;8.43;;;5.50;;
48925;SDS011;39838;59.938;30.642;2023-04-06T03:59:58;21.27;;;5.20;;
48925;SDS011;39838;59.938;30.642;2023-04-06T04:02:25;10.38;;;5.20;;
48925;SDS011;39838;59.938;30.642;2023-04-06T04:04:52;13.68;;;5.60;;
48925;SDS011;39838;59.938;30.642;2023-04-06T04:07:19;8.80;;;5.07;;
48925;SDS011;39838;59.938;30.642;2023-04-06T04:09:47;10.15;;;4.93;;
48925;SDS011;39838;59.938;30.642;2023-04-06T04:12:15;11.63;;;5.10;;
48925;SDS011;39838;59.938;30.642;2023-04-06T04:14:42;15.07;;;5.38;;
48925;SDS011;39838;59.938;30.642;2023-04-06T04:17:10;11.38;;;5.53;;
48925;SDS011;39838;59.938;30.642;2023-04-06T04:19:37;16.35;;;5.15;;
48925;SDS011;39838;59.938;30.642;2023-04-06T04:22:04;10.23;;;5.50;;
48925;SDS011;39838;59.938;30.642;2023-04-06T04:24:32;8.40;;;5.00;;
48925;SDS011;39838;59.938;30.642;2023-04-06T04:26:59;19.50;;;5.53;;
48925;SDS011;39838;59.938;30.642;2023-04-06T04:29:28;16.85;;;5.38;;
48925;SDS011;39838;59.938;30.642;2023-04-06T04:31:55;12.00;;;4.78;;
48925;SDS011;39838;59.938;30.642;2023-04-06T04:34:23;10.15;;;5.55;;
48925;SDS011;39838;59.938;30.642;2023-04-06T04:36:50;15.35;;;5.32;;
48925;SDS011;39838;59.938;30.642;2023-04-06T04:39:18;11.48;;;5.13;;
48925;SDS011;39838;59.938;30.642;2023-04-06T04:41:45;11.82;;;5.15;;
48925;SDS011;39838;59.938;30.642;2023-04-06T04:44:12;10.02;;;5.05;;
48925;SDS011;39838;59.938;30.642;2023-04-06T04:46:41;29.25;;;5.65;;
48925;SDS011;39838;59.938;30.642;2023-04-06T04:49:08;13.50;;;5.18;;
48925;SDS011;39838;59.938;30.642;2023-04-06T04:51:35;10.07;;;5.03;;
48925;SDS011;39838;59.938;30.642;2023-04-06T04:54:03;15.65;;;4.90;;
48925;SDS011;39838;59.938;30.642;2023-04-06T04:56:30;12.30;;;4.60;;
48925;SDS011;39838;59.938;30.642;2023-04-06T04:58:57;16.25;;;4.90;;
48925;SDS011;39838;59.938;30.642;2023-04-06T05:01:24;33.00;;;5.35;;
48925;SDS011;39838;59.938;30.642;2023-04-06T05:03:53;15.70;;;4.80;;
48925;SDS011;39838;59.938;30.642;2023-04-06T05:06:20;47.78;;;5.78;;
48925;SDS011;39838;59.938;30.642;2023-04-06T05:08:48;13.20;;;4.10;;
48925;SDS011;39838;59.938;30.642;2023-04-06T05:11:15;15.25;;;4.22;;
48925;SDS011;39838;59.938;30.642;2023-04-06T05:13:42;32.80;;;5.55;;
48925;SDS011;39838;59.938;30.642;2023-04-06T05:16:09;11.77;;;4.63;;
48925;SDS011;39838;59.938;30.642;2023-04-06T05:18:37;8.45;;;4.30;;
48925;SDS011;39838;59.938;30.642;2023-04-06T05:21:05;18.85;;;4.35;;
48925;SDS011;39838;59.938;30.642;2023-04-06T05:23:33;13.75;;;5.30;;
48925;SDS011;39838;59.938;30.642;2023-04-06T05:26:00;14.13;;;4.60;;
48925;SDS011;39838;59.938;30.642;2023-04-06T05:28:27;9.93;;;4.35;;
48925;SDS011;39838;59.938;30.642;2023-04-06T05:30:54;41.50;;;5.68;;
48925;SDS011;39838;59.938;30.642;2023-04-06T05:33:22;13.07;;;4.47;;
48925;SDS011;39838;59.938;30.642;2023-04-06T05:35:49;10.98;;;4.53;;
48925;SDS011;39838;59.938;30.642;2023-04-06T05:38:17;6.78;;;4.18;;
48925;SDS011;39838;59.938;30.642;2023-04-06T05:40:45;8.85;;;4.45;;
48925;SDS011;39838;59.938;30.642;2023-04-06T05:43:12;7.70;;;4.53;;
48925;SDS011;39838;59.938;30.642;2023-04-06T05:45:39;14.23;;;4.22;;
48925;SDS011;39838;59.938;30.642;2023-04-06T05:48:06;11.55;;;4.30;;
48925;SDS011;39838;59.938;30.642;2023-04-06T05:50:33;9.50;;;4.38;;
48925;SDS011;39838;59.938;30.642;2023-04-06T05:53:01;17.08;;;5.30;;
48925;SDS011;39838;59.938;30.642;2023-04-06T05:55:29;8.77;;;4.47;;
48925;SDS011;39838;59.938;30.642;2023-04-06T05:57:56;7.15;;;4.15;;
48925;SDS011;39838;59.938;30.642;2023-04-06T06:00:24;13.32;;;4.50;;
48925;SDS011;39838;59.938;30.642;2023-04-06T06:02:51;7.82;;;4.25;;
48925;SDS011;39838;59.938;30.642;2023-04-06T06:05:18;18.13;;;5.10;;
48925;SDS011;39838;59.938;30.642;2023-04-06T06:07:45;8.40;;;4.60;;
48925;SDS011;39838;59.938;30.642;2023-04-06T06:10:13;11.40;;;4.95;;
48925;SDS011;39838;59.938;30.642;2023-04-06T06:12:41;7.68;;;4.45;;
48925;SDS011;39838;59.938;30.642;2023-04-06T06:15:09;15.60;;;5.38;;
48925;SDS011;39838;59.938;30.642;2023-04-06T06:17:36;19.85;;;5.57;;
48925;SDS011;39838;59.938;30.642;2023-04-06T06:20:04;14.10;;;5.38;;
48925;SDS011;39838;59.938;30.642;2023-04-06T06:22:32;10.48;;;5.45;;
48925;SDS011;39838;59.938;30.642;2023-04-06T06:25:00;11.93;;;6.00;;
48925;SDS011;39838;59.938;30.642;2023-04-06T06:27:28;10.23;;;5.70;;
48925;SDS011;39838;59.938;30.642;2023-04-06T06:29:57;11.00;;;5.40;;
48925;SDS011;39838;59.938;30.642;2023-04-06T06:32:24;9.35;;;5.70;;
48925;SDS011;39838;59.938;30.642;2023-04-06T06:34:51;11.75;;;5.90;;
48925;SDS011;39838;59.938;30.642;2023-04-06T06:37:18;10.15;;;6.07;;
48925;SDS011;39838;59.938;30.642;2023-04-06T06:39:46;9.68;;;5.57;;
48925;SDS011;39838;59.938;30.642;2023-04-06T06:42:13;10.63;;;5.60;;
48925;SDS011;39838;59.938;30.642;2023-04-06T06:44:40;15.13;;;5.70;;
48925;SDS011;39838;59.938;30.642;2023-04-06T06:47:09;14.10;;;6.07;;
48925;SDS011;39838;59.938;30.642;2023-04-06T06:49:36;15.32;;;6.70;;
48925;SDS011;39838;59.938;30.642;2023-04-06T06:52:05;11.50;;;6.28;;
48925;SDS011;39838;59.938;30.642;2023-04-06T06:54:32;9.90;;;6.18;;
48925;SDS011;39838;59.938;30.642;2023-04-06T06:56:59;10.25;;;6.00;;
48925;SDS011;39838;59.938;30.642;2023-04-06T06:59:27;9.70;;;6.50;;
48925;SDS011;39838;59.938;30.642;2023-04-06T07:01:54;8.00;;;5.45;;
48925;SDS011;39838;59.938;30.642;2023-04-06T07:04:22;8.60;;;5.68;;
48925;SDS011;39838;59.938;30.642;2023-04-06T07:06:49;9.15;;;5.40;;
48925;SDS011;39838;59.938;30.642;2023-04-06T07:09:17;10.45;;;5.70;;
48925;SDS011;39838;59.938;30.642;2023-04-06T07:11:45;11.75;;;5.47;;
48925;SDS011;39838;59.938;30.642;2023-04-06T07:14:12;10.40;;;6.00;;
48925;SDS011;39838;59.938;30.642;2023-04-06T07:16:39;9.48;;;6.25;;
48925;SDS011;39838;59.938;30.642;2023-04-06T07:19:06;11.02;;;6.15;;
48925;SDS011;39838;59.938;30.642;2023-04-06T07:21:36;13.77;;;6.70;;
48925;SDS011;39838;59.938;30.642;2023-04-06T07:24:03;13.25;;;7.32;;
48925;SDS011;39838;59.938;30.642;2023-04-06T07:26:30;11.80;;;6.78;;
48925;SDS011;39838;59.938;30.642;2023-04-06T07:28:58;14.00;;;7.20;;
48925;SDS011;39838;59.938;30.642;2023-04-06T07:31:25;11.70;;;7.20;;
48925;SDS011;39838;59.938;30.642;2023-04-06T07:33:52;9.07;;;5.78;;
48925;SDS011;39838;59.938;30.642;2023-04-06T07:36:19;9.65;;;6.22;;
48925;SDS011;39838;59.938;30.642;2023-04-06T07:38:48;11.02;;;5.60;;
48925;SDS011;39838;59.938;30.642;2023-04-06T07:41:15;9.02;;;5.65;;
48925;SDS011;39838;59.938;30.642;2023-04-06T07:43:42;7.55;;;5.35;;
48925;SDS011;39838;59.938;30.642;2023-04-06T07:46:10;17.00;;;6.68;;
48925;SDS011;39838;59.938;30.642;2023-04-06T07:48:37;10.30;;;6.18;;
48925;SDS011;39838;59.938;30.642;2023-04-06T07:51:04;8.80;;;6.20;;
48925;SDS011;39838;59.938;30.642;2023-04-06T07:53:31;11.15;;;6.00;;
48925;SDS011;39838;59.938;30.642;2023-04-06T07:56:00;10.30;;;6.22;;
48925;SDS011;39838;59.938;30.642;2023-04-06T07:58:27;10.40;;;6.15;;
48925;SDS011;39838;59.938;30.642;2023-04-06T08:00:54;9.85;;;6.25;;
48925;SDS011;39838;59.938;30.642;2023-04-06T08:03:23;10.27;;;7.03;;
48925;SDS011;39838;59.938;30.642;2023-04-06T08:05:50;11.35;;;7.07;;
48925;SDS011;39838;59.938;30.642;2023-04-06T08:08:19;14.82;;;8.65;;
48925;SDS011;39838;59.938;30.642;2023-04-06T08:10:46;18.70;;;10.05;;
48925;SDS011;39838;59.938;30.642;2023-04-06T08:13:16;17.95;;;10.23;;
48925;SDS011;39838;59.938;30.642;2023-04-06T08:15:43;18.02;;;10.30;;
48925;SDS011;39838;59.938;30.642;2023-04-06T08:18:10;16.65;;;9.73;;
48925;SDS011;39838;59.938;30.642;2023-04-06T08:20:38;21.98;;;10.73;;
48925;SDS011;39838;59.938;30.642;2023-04-06T08:23:05;18.38;;;10.80;;
48925;SDS011;39838;59.938;30.642;2023-04-06T08:25:35;21.15;;;11.88;;
48925;SDS011;39838;59.938;30.642;2023-04-06T08:28:02;21.23;;;11.95;;
48925;SDS011;39838;59.938;30.642;2023-04-06T08:30:31;25.50;;;12.90;;
48925;SDS011;39838;59.938;30.642;2023-04-06T08:32:58;23.13;;;12.82;;
48925;SDS011;39838;59.938;30.642;2023-04-06T08:35:25;21.20;;;12.07;;
48925;SDS011;39838;59.938;30.642;2023-04-06T08:37:53;25.25;;;13.20;;
48925;SDS011;39838;59.938;30.642;2023-04-06T08:40:20;21.50;;;12.18;;
48925;SDS011;39838;59.938;30.642;2023-04-06T08:42:49;25.25;;;13.18;;
48925;SDS011;39838;59.938;30.642;2023-04-06T08:45:18;23.48;;;12.40;;
48925;SDS011;39838;59.938;30.642;2023-04-06T08:47:48;20.10;;;12.00;;
48925;SDS011;39838;59.938;30.642;2023-04-06T08:50:17;22.27;;;12.45;;
48925;SDS011;39838;59.938;30.642;2023-04-06T08:52:46;26.17;;;13.50;;
48925;SDS011;39838;59.938;30.642;2023-04-06T08:55:14;26.80;;;13.80;;
48925;SDS011;39838;59.938;30.642;2023-04-06T08:57:42;26.25;;;13.77;;
48925;SDS011;39838;59.938;30.642;2023-04-06T09:00:09;23.83;;;13.05;;
48925;SDS011;39838;59.938;30.642;2023-04-06T09:02:38;21.58;;;13.65;;
48925;SDS011;39838;59.938;30.642;2023-04-06T09:05:07;24.45;;;14.18;;
48925;SDS011;39838;59.938;30.642;2023-04-06T09:07:35;25.20;;;14.82;;
48925;SDS011;39838;59.938;30.642;2023-04-06T09:10:03;25.42;;;13.25;;
48925;SDS011;39838;59.938;30.642;2023-04-06T09:12:31;23.80;;;13.93;;
48925;SDS011;39838;59.938;30.642;2023-04-06T09:14:59;22.83;;;13.60;;
48925;SDS011;39838;59.938;30.642;2023-04-06T09:17:29;24.77;;;12.75;;
48925;SDS011;39838;59.938;30.642;2023-04-06T09:19:59;21.50;;;12.23;;
48925;SDS011;39838;59.938;30.642;2023-04-06T09:22:36;21.58;;;12.32;;
48925;SDS011;39838;59.938;30.642;2023-04-06T09:25:04;20.70;;;11.55;;
48925;SDS011;39838;59.938;30.642;2023-04-06T09:27:33;19.38;;;11.18;;
48925;SDS011;39838;59.938;30.642;2023-04-06T09:30:03;23.65;;;11.27;;
48925;SDS011;39838;59.938;30.642;2023-04-06T09:32:31;19.42;;;11.82;;
48925;SDS011;39838;59.938;30.642;2023-04-06T09:35:05;21.42;;;11.40;;
48925;SDS011;39838;59.938;30.642;2023-04-06T09:37:33;18.25;;;11.13;;
48925;SDS011;39838;59.938;30.642;2023-04-06T09:40:06;19.65;;;10.30;;
48925;SDS011;39838;59.938;30.642;2023-04-06T09:42:34;23.27;;;10.27;;
48925;SDS011;39838;59.938;30.642;2023-04-06T09:45:01;18.85;;;10.68;;
48925;SDS011;39838;59.938;30.642;2023-04-06T09:47:29;14.27;;;9.02;;
48925;SDS011;39838;59.938;30.642;2023-04-06T09:49:58;11.63;;;7.38;;
48925;SDS011;39838;59.938;30.642;2023-04-06T09:52:26;12.18;;;7.88;;
48925;SDS011;39838;59.938;30.642;2023-04-06T09:54:55;10.98;;;7.75;;
48925;SDS011;39838;59.938;30.642;2023-04-06T09:57:28;13.30;;;7.68;;
48925;SDS011;39838;59.938;30.642;2023-04-06T10:00:01;10.57;;;6.88;;
48925;SDS011;39838;59.938;30.642;2023-04-06T10:02:37;9.30;;;6.00;;
48925;SDS011;39838;59.938;30.642;2023-04-06T10:05:09;10.05;;;6.00;;
48925;SDS011;39838;59.938;30.642;2023-04-06T10:07:43;8.63;;;6.40;;
48925;SDS011;39838;59.938;30.642;2023-04-06T10:10:11;9.10;;;5.40;;
48925;SDS011;39838;59.938;30.642;2023-04-06T10:12:42;7.18;;;4.90;;
48925;SDS011;39838;59.938;30.642;2023-04-06T10:15:10;9.48;;;5.45;;
48925;SDS011;39838;59.938;30.642;2023-04-06T10:17:38;7.97;;;5.40;;
48925;SDS011;39838;59.938;30.642;2023-04-06T10:20:07;12.88;;;5.60;;
48925;SDS011;39838;59.938;30.642;2023-04-06T10:22:39;7.90;;;4.88;;
48925;SDS011;39838;59.938;30.642;2023-04-06T10:25:16;8.68;;;5.47;;
48925;SDS011;39838;59.938;30.642;2023-04-06T10:27:44;7.45;;;4.85;;
48925;SDS011;39838;59.938;30.642;2023-04-06T10:30:15;7.57;;;4.93;;
48925;SDS011;39838;59.938;30.642;2023-04-06T10:32:42;10.93;;;6.00;;
48925;SDS011;39838;59.938;30.642;2023-04-06T10:35:10;8.57;;;5.00;;
48925;SDS011;39838;59.938;30.642;2023-04-06T10:37:46;7.68;;;5.00;;
48925;SDS011;39838;59.938;30.642;2023-04-06T10:40:22;10.93;;;4.85;;
48925;SDS011;39838;59.938;30.642;2023-04-06T10:42:53;5.70;;;4.30;;
48925;SDS011;39838;59.938;30.642;2023-04-06T10:45:22;6.97;;;4.70;;
48925;SDS011;39838;59.938;30.642;2023-04-06T10:47:52;6.57;;;4.68;;
48925;SDS011;39838;59.938;30.642;2023-04-06T10:50:19;7.88;;;4.70;;
48925;SDS011;39838;59.938;30.642;2023-04-06T10:52:58;5.97;;;4.15;;
48925;SDS011;39838;59.938;30.642;2023-04-06T10:55:26;6.47;;;4.22;;
48925;SDS011;39838;59.938;30.642;2023-04-06T10:57:56;5.97;;;4.30;;
48925;SDS011;39838;59.938;30.642;2023-04-06T11:00:23;7.10;;;4.70;;
48925;SDS011;39838;59.938;30.642;2023-04-06T11:02:51;6.97;;;4.38;;
48925;SDS011;39838;59.938;30.642;2023-04-06T11:05:26;10.25;;;4.43;;
48925;SDS011;39838;59.938;30.642;2023-04-06T11:07:53;7.00;;;4.55;;
48925;SDS011;39838;59.938;30.642;2023-04-06T11:10:20;9.38;;;4.57;;
48925;SDS011;39838;59.938;30.642;2023-04-06T11:12:52;6.60;;;4.28;;
48925;SDS011;39838;59.938;30.642;2023-04-06T11:15:22;7.68;;;4.03;;
48925;SDS011;39838;59.938;30.642;2023-04-06T11:17:49;7.35;;;4.32;;
48925;SDS011;39838;59.938;30.642;2023-04-06T11:20:16;7.07;;;4.20;;
48925;SDS011;39838;59.938;30.642;2023-04-06T11:22:48;10.68;;;5.05;;
48925;SDS011;39838;59.938;30.642;2023-04-06T11:25:16;8.45;;;4.90;;
48925;SDS011;39838;59.938;30.642;2023-04-06T11:27:44;9.70;;;5.35;;
48925;SDS011;39838;59.938;30.642;2023-04-06T11:30:13;11.13;;;5.40;;
48925;SDS011;39838;59.938;30.642;2023-04-06T11:32:42;8.50;;;5.20;;
48925;SDS011;39838;59.938;30.642;2023-04-06T11:35:12;9.13;;;5.30;;
48925;SDS011;39838;59.938;30.642;2023-04-06T11:37:46;10.70;;;5.70;;
48925;SDS011;39838;59.938;30.642;2023-04-06T11:40:15;10.85;;;5.65;;
48925;SDS011;39838;59.938;30.642;2023-04-06T11:42:42;10.07;;;5.20;;
48925;SDS011;39838;59.938;30.642;2023-04-06T11:45:19;8.25;;;5.05;;
48925;SDS011;39838;59.938;30.642;2023-04-06T11:47:54;8.80;;;5.45;;
48925;SDS011;39838;59.938;30.642;2023-04-06T11:50:22;9.48;;;4.97;;
48925;SDS011;39838;59.938;30.642;2023-04-06T11:52:57;7.80;;;4.22;;
48925;SDS011;39838;59.938;30.642;2023-04-06T11:55:25;7.80;;;4.53;;
48925;SDS011;39838;59.938;30.642;2023-04-06T11:57:53;8.85;;;4.10;;
48925;SDS011;39838;59.938;30.642;2023-04-06T12:00:20;8.13;;;3.92;;
48925;SDS011;39838;59.938;30.642;2023-04-06T12:02:49;7.15;;;3.70;;
48925;SDS011;39838;59.938;30.642;2023-04-06T12:05:16;6.38;;;3.90;;
48925;SDS011;39838;59.938;30.642;2023-04-06T12:07:44;8.20;;;3.95;;
48925;SDS011;39838;59.938;30.642;2023-04-06T12:10:11;5.78;;;3.40;;
48925;SDS011;39838;59.938;30.642;2023-04-06T12:12:38;5.38;;;3.20;;
48925;SDS011;39838;59.938;30.642;2023-04-06T12:15:06;6.97;;;3.38;;
48925;SDS011;39838;59.938;30.642;2023-04-06T12:17:34;5.20;;;3.00;;
48925;SDS011;39838;59.938;30.642;2023-04-06T12:20:03;5.00;;;3.05;;
48925;SDS011;39838;59.938;30.642;2023-04-06T12:22:31;4.25;;;2.90;;
48925;SDS011;39838;59.938;30.642;2023-04-06T12:24:59;5.78;;;2.90;;
48925;SDS011;39838;59.938;30.642;2023-04-06T12:27:26;5.07;;;2.80;;
48925;SDS011;39838;59.938;30.642;2023-04-06T12:29:54;5.78;;;2.90;;
48925;SDS011;39838;59.938;30.642;2023-04-06T12:32:21;4.28;;;2.80;;
48925;SDS011;39838;59.938;30.642;2023-04-06T12:34:49;4.30;;;3.10;;
48925;SDS011;39838;59.938;30.642;2023-04-06T12:37:18;3.90;;;2.60;;
48925;SDS011;39838;59.938;30.642;2023-04-06T12:39:46;4.30;;;2.50;;
48925;SDS011;39838;59.938;30.642;2023-04-06T12:42:13;6.60;;;2.60;;
48925;SDS011;39838;59.938;30.642;2023-04-06T12:44:41;3.50;;;2.30;;
48925;SDS011;39838;59.938;30.642;2023-04-06T12:47:08;4.78;;;2.75;;
48925;SDS011;39838;59.938;30.642;2023-04-06T12:49:36;3.80;;;2.40;;
48925;SDS011;39838;59.938;30.642;2023-04-06T12:52:03;4.78;;;2.45;;
48925;SDS011;39838;59.938;30.642;2023-04-06T12:54:32;4.60;;;2.40;;
48925;SDS011;39838;59.938;30.642;2023-04-06T12:56:59;5.40;;;2.50;;
48925;SDS011;39838;59.938;30.642;2023-04-06T12:59:26;5.15;;;2.60;;
48925;SDS011;39838;59.938;30.642;2023-04-06T13:01:59;4.15;;;2.50;;
48925;SDS011;39838;59.938;30.642;2023-04-06T13:04:27;6.03;;;2.60;;
48925;SDS011;39838;59.938;30.642;2023-04-06T13:06:54;3.45;;;2.30;;
48925;SDS011;39838;59.938;30.642;2023-04-06T13:09:21;4.00;;;2.30;;
48925;SDS011;39838;59.938;30.642;2023-04-06T13:11:50;4.35;;;2.40;;
48925;SDS011;39838;59.938;30.642;2023-04-06T13:14:17;4.50;;;2.70;;
48925;SDS011;39838;59.938;30.642;2023-04-06T13:16:44;3.75;;;2.10;;
48925;SDS011;39838;59.938;30.642;2023-04-06T13:19:11;2.53;;;2.20;;
48925;SDS011;39838;59.938;30.642;2023-04-06T13:21:39;4.15;;;2.30;;
48925;SDS011;39838;59.938;30.642;2023-04-06T13:24:06;4.70;;;2.20;;
48925;SDS011;39838;59.938;30.642;2023-04-06T13:26:33;2.83;;;2.15;;
48925;SDS011;39838;59.938;30.642;2023-04-06T13:29:03;3.22;;;2.20;;
48925;SDS011;39838;59.938;30.642;2023-04-06T13:31:30;5.75;;;2.30;;
48925;SDS011;39838;59.938;30.642;2023-04-06T13:33:57;4.00;;;2.53;;
48925;SDS011;39838;59.938;30.642;2023-04-06T13:36:25;4.60;;;2.30;;
48925;SDS011;39838;59.938;30.642;2023-04-06T13:38:53;2.83;;;2.00;;
48925;SDS011;39838;59.938;30.642;2023-04-06T13:41:21;3.08;;;2.30;;
48925;SDS011;39838;59.938;30.642;2023-04-06T13:43:50;3.03;;;2.30;;
48925;SDS011;39838;59.938;30.642;2023-04-06T13:46:19;3.03;;;2.15;;
48925;SDS011;39838;59.938;30.642;2023-04-06T13:48:46;3.28;;;2.10;;
48925;SDS011;39838;59.938;30.642;2023-04-06T13:51:13;3.55;;;2.20;;
48925;SDS011;39838;59.938;30.642;2023-04-06T13:53:41;3.85;;;2.30;;
48925;SDS011;39838;59.938;30.642;2023-04-06T13:56:08;2.75;;;2.10;;
48925;SDS011;39838;59.938;30.642;2023-04-06T13:58:35;3.03;;;2.28;;
48925;SDS011;39838;59.938;30.642;2023-04-06T14:01:03;2.88;;;2.20;;
48925;SDS011;39838;59.938;30.642;2023-04-06T14:03:32;5.82;;;2.42;;
48925;SDS011;39838;59.938;30.642;2023-04-06T14:06:00;3.55;;;2.17;;
48925;SDS011;39838;59.938;30.642;2023-04-06T14:08:27;5.57;;;2.40;;
48925;SDS011;39838;59.938;30.642;2023-04-06T14:10:55;3.75;;;2.03;;
48925;SDS011;39838;59.938;30.642;2023-04-06T14:13:22;3.22;;;2.03;;
48925;SDS011;39838;59.938;30.642;2023-04-06T14:15:52;3.30;;;1.90;;
48925;SDS011;39838;59.938;30.642;2023-04-06T14:18:21;2.92;;;2.10;;
48925;SDS011;39838;59.938;30.642;2023-04-06T14:20:54;4.03;;;2.30;;
48925;SDS011;39838;59.938;30.642;2023-04-06T14:23:22;3.45;;;1.90;;
48925;SDS011;39838;59.938;30.642;2023-04-06T14:25:51;3.30;;;2.00;;
48925;SDS011;39838;59.938;30.642;2023-04-06T14:28:20;2.97;;;2.10;;
48925;SDS011;39838;59.938;30.642;2023-04-06T14:30:47;2.90;;;1.95;;
48925;SDS011;39838;59.938;30.642;2023-04-06T14:33:14;3.88;;;1.77;;